AAY411 KCVG-KPIE
Flight info
| Callsign | AAY411 |
|---|---|
| Flight time | 1h 41m |
| Altitude | 37000 |
| Route | KENLN6 SHIPR VXV/N0439F380 THRSR HONID BANGZ2 |
| Aircraft | A320/M-SDE3FGHIRWY/LB1 |
Departure
| Time | 2026-05-04 19:25 |
|---|---|
| Airport | Cincinnati Northern Kentucky International Airport (KCVG) |
Arrival
| Time | 2026-05-04 21:06 |
|---|---|
| Airport | St. Petersburg Clearwater International Airport (KPIE) |
| Time | Latitude | Longitude | Altitude | Speed | Heading |
|---|---|---|---|---|---|
| 2026-05-04 19:12 | 39.05369 | -84.65174 | 879 ft | 0 kts | 258° |
| 2026-05-04 19:19 | 39.05372 | -84.65152 | 879 ft | 3 kts | 261° |
| 2026-05-04 19:19 | 39.05375 | -84.65122 | 879 ft | 3 kts | 268° |
| 2026-05-04 19:19 | 39.05374 | -84.65092 | 879 ft | 3 kts | 284° |
| 2026-05-04 19:20 | 39.05366 | -84.65069 | 879 ft | 3 kts | 338° |
| 2026-05-04 19:20 | 39.05356 | -84.65066 | 879 ft | 1 kts | 0° |
| 2026-05-04 19:20 | 39.05355 | -84.65066 | 879 ft | 0 kts | 0° |
| 2026-05-04 19:22 | 39.05358 | -84.65066 | 879 ft | 3 kts | 0° |
| 2026-05-04 19:22 | 39.05412 | -84.65062 | 879 ft | 9 kts | 12° |
| 2026-05-04 19:22 | 39.05482 | -84.65010 | 879 ft | 13 kts | 30° |
| 2026-05-04 19:23 | 39.05564 | -84.64972 | 879 ft | 12 kts | 38° |
| 2026-05-04 19:23 | 39.05575 | -84.64880 | 879 ft | 10 kts | 91° |
| 2026-05-04 19:23 | 39.05575 | -84.64799 | 880 ft | 9 kts | 90° |
| 2026-05-04 19:23 | 39.05565 | -84.64698 | 882 ft | 11 kts | 119° |
| 2026-05-04 19:24 | 39.05488 | -84.64669 | 882 ft | 19 kts | 180° |
| 2026-05-04 19:24 | 39.05124 | -84.64671 | 883 ft | 87 kts | 180° |
| 2026-05-04 19:24 | 39.04318 | -84.64676 | 883 ft | 142 kts | 180° |
| 2026-05-04 19:24 | 39.03227 | -84.64684 | 1268 ft | 158 kts | 185° |
| 2026-05-04 19:25 | 39.02142 | -84.64690 | 2118 ft | 155 kts | 184° |
| 2026-05-04 19:25 | 39.01055 | -84.64641 | 2880 ft | 163 kts | 175° |
| 2026-05-04 19:25 | 38.99875 | -84.64280 | 3341 ft | 185 kts | 172° |
| 2026-05-04 19:25 | 38.98544 | -84.63856 | 3644 ft | 210 kts | 172° |
| 2026-05-04 19:26 | 38.97046 | -84.63377 | 4041 ft | 234 kts | 172° |
| 2026-05-04 19:26 | 38.95384 | -84.62842 | 4496 ft | 258 kts | 172° |
| 2026-05-04 19:26 | 38.93601 | -84.62244 | 5259 ft | 269 kts | 171° |
| 2026-05-04 19:26 | 38.91773 | -84.61610 | 6153 ft | 275 kts | 172° |
| 2026-05-04 19:27 | 38.89922 | -84.60962 | 7074 ft | 277 kts | 172° |
| 2026-05-04 19:27 | 38.88053 | -84.60313 | 7979 ft | 280 kts | 172° |
| 2026-05-04 19:27 | 38.86163 | -84.59666 | 8880 ft | 282 kts | 173° |
| 2026-05-04 19:27 | 38.84260 | -84.59020 | 9809 ft | 284 kts | 174° |
| 2026-05-04 19:28 | 38.82320 | -84.58659 | 10551 ft | 282 kts | 186° |
| 2026-05-04 19:28 | 38.80305 | -84.58808 | 10841 ft | 301 kts | 192° |
| 2026-05-04 19:28 | 38.78135 | -84.59074 | 11102 ft | 324 kts | 192° |
| 2026-05-04 19:28 | 38.75847 | -84.59351 | 11731 ft | 335 kts | 192° |
| 2026-05-04 19:29 | 38.73479 | -84.59395 | 12479 ft | 349 kts | 181° |
| 2026-05-04 19:29 | 38.71044 | -84.59033 | 13326 ft | 355 kts | 180° |
| 2026-05-04 19:29 | 38.68574 | -84.58656 | 13999 ft | 360 kts | 180° |
| 2026-05-04 19:29 | 38.66072 | -84.58267 | 14642 ft | 365 kts | 180° |
| 2026-05-04 19:30 | 38.63533 | -84.57867 | 15266 ft | 370 kts | 180° |
| 2026-05-04 19:30 | 38.60967 | -84.57460 | 15911 ft | 374 kts | 180° |
| 2026-05-04 19:30 | 38.58372 | -84.57048 | 16533 ft | 378 kts | 179° |
| 2026-05-04 19:30 | 38.55744 | -84.56632 | 17144 ft | 382 kts | 179° |
| 2026-05-04 19:31 | 38.53125 | -84.56222 | 17740 ft | 387 kts | 179° |
| 2026-05-04 19:31 | 38.50402 | -84.55795 | 18321 ft | 391 kts | 179° |
| 2026-05-04 19:31 | 38.47687 | -84.55366 | 18830 ft | 395 kts | 179° |
| 2026-05-04 19:31 | 38.44946 | -84.54933 | 19359 ft | 398 kts | 179° |
| 2026-05-04 19:32 | 38.42185 | -84.54499 | 19882 ft | 401 kts | 179° |
| 2026-05-04 19:32 | 38.39441 | -84.54072 | 20406 ft | 404 kts | 179° |
| 2026-05-04 19:32 | 38.36640 | -84.53639 | 20938 ft | 407 kts | 178° |
| 2026-05-04 19:32 | 38.33820 | -84.53204 | 21458 ft | 410 kts | 178° |
| 2026-05-04 19:33 | 38.30979 | -84.52765 | 21963 ft | 413 kts | 178° |
| 2026-05-04 19:33 | 38.28118 | -84.52327 | 22469 ft | 416 kts | 178° |
| 2026-05-04 19:33 | 38.25237 | -84.51884 | 22977 ft | 418 kts | 178° |
| 2026-05-04 19:33 | 38.22336 | -84.51433 | 23470 ft | 421 kts | 178° |
| 2026-05-04 19:34 | 38.19419 | -84.50976 | 23876 ft | 424 kts | 178° |
| 2026-05-04 19:34 | 38.16479 | -84.50515 | 24273 ft | 427 kts | 178° |
| 2026-05-04 19:34 | 38.13483 | -84.50051 | 24666 ft | 429 kts | 178° |
| 2026-05-04 19:34 | 38.10507 | -84.49594 | 25048 ft | 432 kts | 178° |
| 2026-05-04 19:35 | 38.07553 | -84.49137 | 25419 ft | 435 kts | 178° |
| 2026-05-04 19:35 | 38.04501 | -84.48669 | 25799 ft | 437 kts | 178° |
| 2026-05-04 19:35 | 38.01511 | -84.48208 | 26152 ft | 440 kts | 178° |
| 2026-05-04 19:35 | 37.98464 | -84.47736 | 26506 ft | 443 kts | 178° |
| 2026-05-04 19:36 | 37.95400 | -84.47103 | 26865 ft | 450 kts | 172° |
| 2026-05-04 19:36 | 37.92340 | -84.46219 | 27213 ft | 452 kts | 172° |
| 2026-05-04 19:36 | 37.89265 | -84.45329 | 27565 ft | 455 kts | 172° |
| 2026-05-04 19:36 | 37.86127 | -84.44423 | 27924 ft | 458 kts | 172° |
| 2026-05-04 19:37 | 37.83058 | -84.43539 | 28260 ft | 460 kts | 172° |
| 2026-05-04 19:37 | 37.79928 | -84.42637 | 28574 ft | 463 kts | 172° |
| 2026-05-04 19:37 | 37.76778 | -84.41732 | 28887 ft | 465 kts | 172° |
| 2026-05-04 19:37 | 37.73613 | -84.40822 | 29211 ft | 468 kts | 173° |
| 2026-05-04 19:38 | 37.70431 | -84.39906 | 29523 ft | 470 kts | 173° |
| 2026-05-04 19:38 | 37.67234 | -84.38988 | 29819 ft | 473 kts | 173° |
| 2026-05-04 19:38 | 37.64019 | -84.38063 | 30100 ft | 475 kts | 173° |
| 2026-05-04 19:38 | 37.60789 | -84.37131 | 30354 ft | 477 kts | 173° |
| 2026-05-04 19:39 | 37.57557 | -84.36197 | 30714 ft | 476 kts | 173° |
| 2026-05-04 19:39 | 37.54329 | -84.35272 | 31091 ft | 475 kts | 173° |
| 2026-05-04 19:39 | 37.51112 | -84.34358 | 31457 ft | 474 kts | 173° |
| 2026-05-04 19:39 | 37.47898 | -84.33445 | 31816 ft | 473 kts | 173° |
| 2026-05-04 19:40 | 37.44690 | -84.32532 | 32163 ft | 472 kts | 173° |
| 2026-05-04 19:40 | 37.41485 | -84.31620 | 32516 ft | 472 kts | 173° |
| 2026-05-04 19:40 | 37.38291 | -84.30710 | 32866 ft | 471 kts | 173° |
| 2026-05-04 19:40 | 37.35094 | -84.29801 | 33212 ft | 470 kts | 173° |
| 2026-05-04 19:41 | 37.31906 | -84.28894 | 33575 ft | 469 kts | 173° |
| 2026-05-04 19:41 | 37.28724 | -84.27990 | 33929 ft | 469 kts | 173° |
| 2026-05-04 19:41 | 37.25545 | -84.27087 | 34249 ft | 468 kts | 173° |
| 2026-05-04 19:41 | 37.22372 | -84.26188 | 34561 ft | 467 kts | 173° |
| 2026-05-04 19:42 | 37.19205 | -84.25292 | 34868 ft | 466 kts | 173° |
| 2026-05-04 19:42 | 37.16039 | -84.24400 | 35157 ft | 465 kts | 173° |
| 2026-05-04 19:42 | 37.12882 | -84.23511 | 35431 ft | 465 kts | 173° |
| 2026-05-04 19:42 | 37.09730 | -84.22622 | 35719 ft | 464 kts | 173° |
| 2026-05-04 19:43 | 37.06585 | -84.21732 | 36002 ft | 463 kts | 173° |
| 2026-05-04 19:43 | 37.03443 | -84.20842 | 36269 ft | 463 kts | 173° |
| 2026-05-04 19:43 | 37.00306 | -84.19956 | 36529 ft | 462 kts | 173° |
| 2026-05-04 19:43 | 36.97174 | -84.19077 | 36786 ft | 461 kts | 173° |
| 2026-05-04 19:44 | 36.94041 | -84.18200 | 36950 ft | 461 kts | 173° |
| 2026-05-04 19:44 | 36.87722 | -84.16426 | 36978 ft | 470 kts | 173° |
| 2026-05-04 19:45 | 36.81272 | -84.14621 | 36978 ft | 479 kts | 173° |
| 2026-05-04 19:45 | 36.74752 | -84.12788 | 36979 ft | 481 kts | 173° |
| 2026-05-04 19:46 | 36.68220 | -84.10958 | 36980 ft | 481 kts | 173° |
| 2026-05-04 19:46 | 36.61682 | -84.09140 | 36976 ft | 481 kts | 173° |
| 2026-05-04 19:47 | 36.55147 | -84.07317 | 36989 ft | 482 kts | 173° |
| 2026-05-04 19:47 | 36.48605 | -84.05495 | 36978 ft | 481 kts | 173° |
| 2026-05-04 19:48 | 36.42067 | -84.03681 | 36985 ft | 481 kts | 173° |
| 2026-05-04 19:48 | 36.35527 | -84.01865 | 36977 ft | 482 kts | 173° |
| 2026-05-04 19:49 | 36.28978 | -84.00058 | 36979 ft | 482 kts | 173° |
| 2026-05-04 19:49 | 36.22430 | -83.98248 | 36979 ft | 482 kts | 173° |
| 2026-05-04 19:50 | 36.15880 | -83.96442 | 36999 ft | 482 kts | 173° |
| 2026-05-04 19:50 | 36.09327 | -83.94642 | 37005 ft | 482 kts | 173° |
| 2026-05-04 19:51 | 36.03878 | -83.93153 | 37009 ft | 483 kts | 173° |
| 2026-05-04 19:51 | 35.97318 | -83.91359 | 37013 ft | 483 kts | 173° |
| 2026-05-04 19:52 | 35.90742 | -83.90056 | 37016 ft | 472 kts | 185° |
| 2026-05-04 19:52 | 35.84340 | -83.90964 | 37034 ft | 460 kts | 198° |
| 2026-05-04 19:53 | 35.78061 | -83.92507 | 37029 ft | 460 kts | 198° |
| 2026-05-04 19:53 | 35.71783 | -83.94029 | 37026 ft | 460 kts | 198° |
| 2026-05-04 19:54 | 35.65500 | -83.95552 | 37027 ft | 460 kts | 198° |
| 2026-05-04 19:54 | 35.59222 | -83.97070 | 37025 ft | 460 kts | 197° |
| 2026-05-04 19:55 | 35.52951 | -83.98590 | 37020 ft | 460 kts | 198° |
| 2026-05-04 19:55 | 35.46674 | -84.00112 | 37025 ft | 459 kts | 197° |
| 2026-05-04 19:56 | 35.40407 | -84.01632 | 37026 ft | 459 kts | 197° |
| 2026-05-04 19:56 | 35.34128 | -84.03149 | 37046 ft | 460 kts | 197° |
| 2026-05-04 19:57 | 35.27850 | -84.04657 | 37053 ft | 460 kts | 198° |
| 2026-05-04 19:57 | 35.21575 | -84.06165 | 37055 ft | 459 kts | 197° |
| 2026-05-04 19:58 | 35.15304 | -84.07659 | 37051 ft | 459 kts | 197° |
| 2026-05-04 19:58 | 35.09035 | -84.09154 | 37046 ft | 459 kts | 198° |
| 2026-05-04 19:59 | 35.02769 | -84.10659 | 37061 ft | 459 kts | 198° |
| 2026-05-04 19:59 | 34.96503 | -84.12154 | 37068 ft | 459 kts | 197° |
| 2026-05-04 20:00 | 34.90248 | -84.13644 | 37075 ft | 458 kts | 197° |
| 2026-05-04 20:00 | 34.83992 | -84.15138 | 37066 ft | 458 kts | 198° |
| 2026-05-04 20:01 | 34.77736 | -84.16630 | 37065 ft | 458 kts | 198° |
| 2026-05-04 20:01 | 34.71472 | -84.18112 | 37061 ft | 459 kts | 197° |
| 2026-05-04 20:02 | 34.65205 | -84.19591 | 37051 ft | 459 kts | 197° |
| 2026-05-04 20:02 | 34.58933 | -84.21079 | 37040 ft | 459 kts | 197° |
| 2026-05-04 20:03 | 34.52660 | -84.22562 | 37040 ft | 460 kts | 197° |
| 2026-05-04 20:03 | 34.46374 | -84.24042 | 37043 ft | 460 kts | 197° |
| 2026-05-04 20:04 | 34.40080 | -84.25528 | 37046 ft | 461 kts | 197° |
| 2026-05-04 20:04 | 34.33780 | -84.27012 | 37049 ft | 462 kts | 197° |
| 2026-05-04 20:05 | 34.27472 | -84.28496 | 37051 ft | 462 kts | 197° |
| 2026-05-04 20:05 | 34.21159 | -84.29970 | 37053 ft | 462 kts | 197° |
| 2026-05-04 20:06 | 34.14840 | -84.31444 | 37050 ft | 462 kts | 197° |
| 2026-05-04 20:06 | 34.08522 | -84.32922 | 37037 ft | 463 kts | 197° |
| 2026-05-04 20:07 | 34.02201 | -84.34397 | 37052 ft | 463 kts | 197° |
| 2026-05-04 20:07 | 33.95870 | -84.35876 | 37050 ft | 463 kts | 197° |
| 2026-05-04 20:08 | 33.89543 | -84.37345 | 37059 ft | 463 kts | 197° |
| 2026-05-04 20:08 | 33.83219 | -84.38817 | 37055 ft | 463 kts | 197° |
| 2026-05-04 20:09 | 33.76885 | -84.40279 | 37056 ft | 463 kts | 197° |
| 2026-05-04 20:09 | 33.70556 | -84.41742 | 37060 ft | 463 kts | 198° |
| 2026-05-04 20:10 | 33.64224 | -84.43193 | 37059 ft | 465 kts | 195° |
| 2026-05-04 20:10 | 33.57663 | -84.43410 | 37057 ft | 475 kts | 185° |
| 2026-05-04 20:11 | 33.51054 | -84.43257 | 37049 ft | 475 kts | 186° |
| 2026-05-04 20:11 | 33.44441 | -84.43120 | 37081 ft | 475 kts | 186° |
| 2026-05-04 20:12 | 33.37829 | -84.42996 | 37083 ft | 476 kts | 186° |
| 2026-05-04 20:12 | 33.31204 | -84.42869 | 37076 ft | 476 kts | 186° |
| 2026-05-04 20:13 | 33.24578 | -84.42736 | 37073 ft | 476 kts | 186° |
| 2026-05-04 20:13 | 33.17949 | -84.42593 | 37046 ft | 477 kts | 186° |
| 2026-05-04 20:14 | 33.11315 | -84.42451 | 37049 ft | 477 kts | 186° |
| 2026-05-04 20:14 | 33.04674 | -84.42313 | 37053 ft | 478 kts | 186° |
| 2026-05-04 20:15 | 32.98027 | -84.42176 | 37054 ft | 478 kts | 186° |
| 2026-05-04 20:15 | 32.91370 | -84.42050 | 37055 ft | 479 kts | 186° |
| 2026-05-04 20:16 | 32.84700 | -84.41924 | 37060 ft | 480 kts | 186° |
| 2026-05-04 20:16 | 32.78022 | -84.41788 | 37060 ft | 480 kts | 186° |
| 2026-05-04 20:17 | 32.71337 | -84.41651 | 37063 ft | 480 kts | 186° |
| 2026-05-04 20:17 | 32.64649 | -84.41510 | 37062 ft | 481 kts | 186° |
| 2026-05-04 20:18 | 32.57960 | -84.41372 | 37060 ft | 481 kts | 187° |
| 2026-05-04 20:18 | 32.51259 | -84.41240 | 37058 ft | 482 kts | 187° |
| 2026-05-04 20:19 | 32.44553 | -84.41110 | 37061 ft | 482 kts | 187° |
| 2026-05-04 20:19 | 32.37843 | -84.40978 | 37073 ft | 482 kts | 187° |
| 2026-05-04 20:20 | 32.31127 | -84.40837 | 37066 ft | 483 kts | 187° |
| 2026-05-04 20:20 | 32.24408 | -84.40690 | 37062 ft | 483 kts | 187° |
| 2026-05-04 20:21 | 32.17685 | -84.40560 | 37060 ft | 483 kts | 187° |
| 2026-05-04 20:21 | 32.07596 | -84.40369 | 37054 ft | 484 kts | 187° |
| 2026-05-04 20:22 | 32.00865 | -84.40234 | 37050 ft | 484 kts | 187° |
| 2026-05-04 20:22 | 31.94123 | -84.40099 | 37051 ft | 485 kts | 188° |
| 2026-05-04 20:23 | 31.87380 | -84.39967 | 37055 ft | 485 kts | 188° |
| 2026-05-04 20:23 | 31.80634 | -84.39832 | 37057 ft | 485 kts | 188° |
| 2026-05-04 20:24 | 31.73880 | -84.39696 | 37062 ft | 485 kts | 188° |
| 2026-05-04 20:24 | 31.67127 | -84.39571 | 37066 ft | 485 kts | 188° |
| 2026-05-04 20:25 | 31.60373 | -84.39476 | 37066 ft | 485 kts | 189° |
| 2026-05-04 20:25 | 31.53675 | -84.39498 | 37068 ft | 485 kts | 189° |
| 2026-05-04 20:26 | 31.46927 | -84.39548 | 37069 ft | 485 kts | 189° |
| 2026-05-04 20:26 | 31.40168 | -84.39572 | 37061 ft | 486 kts | 189° |
| 2026-05-04 20:27 | 31.33402 | -84.39574 | 37056 ft | 486 kts | 189° |
| 2026-05-04 20:27 | 31.26629 | -84.39569 | 37048 ft | 487 kts | 189° |
| 2026-05-04 20:28 | 31.19854 | -84.39573 | 37045 ft | 487 kts | 189° |
| 2026-05-04 20:28 | 31.13074 | -84.39591 | 37046 ft | 487 kts | 189° |
| 2026-05-04 20:29 | 31.06289 | -84.39610 | 37049 ft | 488 kts | 189° |
| 2026-05-04 20:29 | 30.99504 | -84.39614 | 37049 ft | 488 kts | 189° |
| 2026-05-04 20:30 | 30.92714 | -84.39613 | 37052 ft | 488 kts | 189° |
| 2026-05-04 20:30 | 30.85921 | -84.39623 | 37045 ft | 488 kts | 189° |
| 2026-05-04 20:31 | 30.79124 | -84.39635 | 37051 ft | 489 kts | 189° |
| 2026-05-04 20:31 | 30.72325 | -84.39649 | 37066 ft | 489 kts | 189° |
| 2026-05-04 20:32 | 30.67776 | -84.39656 | 37050 ft | 488 kts | 189° |
| 2026-05-04 20:32 | 30.62481 | -84.39658 | 37045 ft | 488 kts | 189° |
| 2026-05-04 20:33 | 30.55684 | -84.39666 | 37052 ft | 488 kts | 189° |
| 2026-05-04 20:33 | 30.48885 | -84.39683 | 37047 ft | 489 kts | 188° |
| 2026-05-04 20:34 | 30.42130 | -84.39693 | 37051 ft | 489 kts | 188° |
| 2026-05-04 20:34 | 30.35292 | -84.38923 | 37056 ft | 506 kts | 172° |
| 2026-05-04 20:35 | 30.31953 | -84.37515 | 37055 ft | 517 kts | 160° |
| 2026-05-04 20:35 | 30.28820 | -84.35397 | 37051 ft | 526 kts | 149° |
| 2026-05-04 20:35 | 30.23175 | -84.29917 | 37060 ft | 531 kts | 144° |
| 2026-05-04 20:36 | 30.17583 | -84.24350 | 37068 ft | 530 kts | 144° |
| 2026-05-04 20:36 | 30.11978 | -84.18809 | 37075 ft | 530 kts | 144° |
| 2026-05-04 20:37 | 30.06372 | -84.13290 | 37076 ft | 529 kts | 144° |
| 2026-05-04 20:37 | 30.00775 | -84.07780 | 37075 ft | 528 kts | 144° |
| 2026-05-04 20:38 | 29.95182 | -84.02281 | 37076 ft | 528 kts | 144° |
| 2026-05-04 20:38 | 29.89601 | -83.96796 | 37059 ft | 526 kts | 144° |
| 2026-05-04 20:39 | 29.84048 | -83.91346 | 37062 ft | 523 kts | 145° |
| 2026-05-04 20:39 | 29.78036 | -83.86834 | 37060 ft | 513 kts | 156° |
| 2026-05-04 20:40 | 29.71818 | -83.82829 | 37062 ft | 512 kts | 156° |
| 2026-05-04 20:40 | 29.65692 | -83.78870 | 37056 ft | 495 kts | 156° |
| 2026-05-04 20:41 | 29.59727 | -83.75024 | 37056 ft | 489 kts | 156° |
| 2026-05-04 20:41 | 29.56757 | -83.73119 | 36903 ft | 489 kts | 157° |
| 2026-05-04 20:41 | 29.53788 | -83.71219 | 36416 ft | 489 kts | 156° |
| 2026-05-04 20:42 | 29.50797 | -83.69311 | 35494 ft | 494 kts | 156° |
| 2026-05-04 20:42 | 29.47772 | -83.67382 | 34520 ft | 501 kts | 156° |
| 2026-05-04 20:42 | 29.44711 | -83.65425 | 33536 ft | 506 kts | 156° |
| 2026-05-04 20:42 | 29.41622 | -83.63446 | 32383 ft | 511 kts | 156° |
| 2026-05-04 20:43 | 29.38530 | -83.61460 | 31215 ft | 509 kts | 156° |
| 2026-05-04 20:43 | 29.35416 | -83.59554 | 30282 ft | 505 kts | 161° |
| 2026-05-04 20:43 | 29.32188 | -83.58124 | 29640 ft | 491 kts | 169° |
| 2026-05-04 20:43 | 29.28938 | -83.57008 | 28966 ft | 484 kts | 169° |
| 2026-05-04 20:44 | 29.25729 | -83.55912 | 28304 ft | 478 kts | 169° |
| 2026-05-04 20:44 | 29.22560 | -83.54833 | 27656 ft | 472 kts | 169° |
| 2026-05-04 20:44 | 29.19427 | -83.53772 | 27025 ft | 467 kts | 169° |
| 2026-05-04 20:44 | 29.16326 | -83.52726 | 26396 ft | 462 kts | 169° |
| 2026-05-04 20:45 | 29.13257 | -83.51693 | 25780 ft | 458 kts | 169° |
| 2026-05-04 20:45 | 29.10214 | -83.50672 | 25172 ft | 453 kts | 169° |
| 2026-05-04 20:45 | 29.07200 | -83.49660 | 24563 ft | 449 kts | 169° |
| 2026-05-04 20:45 | 29.04213 | -83.48653 | 23981 ft | 445 kts | 169° |
| 2026-05-04 20:46 | 29.01256 | -83.47656 | 23376 ft | 441 kts | 169° |
| 2026-05-04 20:46 | 28.98332 | -83.46655 | 22797 ft | 436 kts | 167° |
| 2026-05-04 20:46 | 28.95527 | -83.45346 | 22284 ft | 434 kts | 160° |
| 2026-05-04 20:46 | 28.92797 | -83.43923 | 21769 ft | 428 kts | 160° |
| 2026-05-04 20:47 | 28.90109 | -83.42526 | 21290 ft | 422 kts | 160° |
| 2026-05-04 20:47 | 28.87450 | -83.41148 | 20809 ft | 417 kts | 160° |
| 2026-05-04 20:47 | 28.84828 | -83.39795 | 20336 ft | 411 kts | 160° |
| 2026-05-04 20:47 | 28.82234 | -83.38460 | 19867 ft | 407 kts | 160° |
| 2026-05-04 20:48 | 28.79664 | -83.37140 | 19392 ft | 403 kts | 160° |
| 2026-05-04 20:48 | 28.77119 | -83.35830 | 18918 ft | 400 kts | 160° |
| 2026-05-04 20:48 | 28.74596 | -83.34530 | 18431 ft | 397 kts | 160° |
| 2026-05-04 20:48 | 28.72082 | -83.33236 | 17877 ft | 395 kts | 159° |
| 2026-05-04 20:49 | 28.69589 | -83.31955 | 17357 ft | 392 kts | 159° |
| 2026-05-04 20:49 | 28.67113 | -83.30682 | 16875 ft | 388 kts | 159° |
| 2026-05-04 20:49 | 28.64660 | -83.29421 | 16381 ft | 386 kts | 159° |
| 2026-05-04 20:49 | 28.62223 | -83.28168 | 15880 ft | 383 kts | 159° |
| 2026-05-04 20:50 | 28.59801 | -83.26923 | 15386 ft | 381 kts | 158° |
| 2026-05-04 20:50 | 28.57394 | -83.25685 | 14893 ft | 379 kts | 158° |
| 2026-05-04 20:50 | 28.54999 | -83.24451 | 14391 ft | 377 kts | 158° |
| 2026-05-04 20:50 | 28.52611 | -83.23222 | 13891 ft | 376 kts | 158° |
| 2026-05-04 20:51 | 28.50235 | -83.22002 | 13347 ft | 374 kts | 158° |
| 2026-05-04 20:51 | 28.47876 | -83.20792 | 12831 ft | 370 kts | 158° |
| 2026-05-04 20:51 | 28.45542 | -83.19598 | 12336 ft | 366 kts | 158° |
| 2026-05-04 20:51 | 28.43260 | -83.18431 | 12165 ft | 353 kts | 158° |
| 2026-05-04 20:52 | 28.41064 | -83.17308 | 12037 ft | 339 kts | 158° |
| 2026-05-04 20:52 | 28.38951 | -83.16226 | 11911 ft | 327 kts | 158° |
| 2026-05-04 20:52 | 28.36907 | -83.15189 | 11781 ft | 316 kts | 158° |
| 2026-05-04 20:52 | 28.34923 | -83.14195 | 11636 ft | 307 kts | 159° |
| 2026-05-04 20:53 | 28.32983 | -83.13229 | 11358 ft | 303 kts | 159° |
| 2026-05-04 20:53 | 28.31059 | -83.12272 | 11039 ft | 301 kts | 159° |
| 2026-05-04 20:53 | 28.29150 | -83.11322 | 10709 ft | 299 kts | 158° |
| 2026-05-04 20:53 | 28.27353 | -83.10142 | 10382 ft | 299 kts | 145° |
| 2026-05-04 20:54 | 28.25763 | -83.08619 | 10046 ft | 299 kts | 141° |
| 2026-05-04 20:54 | 28.24195 | -83.07084 | 9696 ft | 297 kts | 141° |
| 2026-05-04 20:54 | 28.22637 | -83.05562 | 9341 ft | 295 kts | 141° |
| 2026-05-04 20:54 | 28.21156 | -83.03959 | 9091 ft | 295 kts | 131° |
| 2026-05-04 20:55 | 28.20072 | -83.01992 | 8897 ft | 296 kts | 115° |
| 2026-05-04 20:55 | 28.19494 | -82.99762 | 8683 ft | 296 kts | 99° |
| 2026-05-04 20:55 | 28.19343 | -82.97436 | 8494 ft | 295 kts | 94° |
| 2026-05-04 20:55 | 28.19219 | -82.95118 | 8290 ft | 294 kts | 94° |
| 2026-05-04 20:56 | 28.19089 | -82.92814 | 8091 ft | 292 kts | 95° |
| 2026-05-04 20:56 | 28.18959 | -82.90526 | 7894 ft | 290 kts | 94° |
| 2026-05-04 20:56 | 28.18832 | -82.88255 | 7690 ft | 288 kts | 94° |
| 2026-05-04 20:56 | 28.18852 | -82.85999 | 7507 ft | 286 kts | 81° |
| 2026-05-04 20:57 | 28.19139 | -82.83861 | 7404 ft | 283 kts | 89° |
| 2026-05-04 20:57 | 28.18780 | -82.81717 | 7089 ft | 276 kts | 116° |
| 2026-05-04 20:57 | 28.17615 | -82.80039 | 6738 ft | 271 kts | 143° |
| 2026-05-04 20:57 | 28.15906 | -82.79196 | 6423 ft | 270 kts | 171° |
| 2026-05-04 20:58 | 28.14040 | -82.79318 | 6014 ft | 271 kts | 191° |
| 2026-05-04 20:58 | 28.12207 | -82.79838 | 5563 ft | 272 kts | 194° |
| 2026-05-04 20:58 | 28.10387 | -82.80407 | 5145 ft | 271 kts | 193° |
| 2026-05-04 20:58 | 28.08573 | -82.80988 | 4994 ft | 271 kts | 194° |
| 2026-05-04 20:59 | 28.06752 | -82.81570 | 4995 ft | 273 kts | 194° |
| 2026-05-04 20:59 | 28.04920 | -82.82154 | 4992 ft | 273 kts | 194° |
| 2026-05-04 20:59 | 28.03089 | -82.82734 | 5000 ft | 273 kts | 194° |
| 2026-05-04 20:59 | 28.01260 | -82.83315 | 5005 ft | 273 kts | 194° |
| 2026-05-04 21:00 | 27.99431 | -82.83894 | 4995 ft | 273 kts | 194° |
| 2026-05-04 21:00 | 27.97573 | -82.84223 | 4931 ft | 269 kts | 174° |
| 2026-05-04 21:00 | 27.95744 | -82.83873 | 4493 ft | 266 kts | 165° |
| 2026-05-04 21:00 | 27.93943 | -82.83377 | 4094 ft | 266 kts | 164° |
| 2026-05-04 21:01 | 27.92157 | -82.82870 | 3685 ft | 264 kts | 164° |
| 2026-05-04 21:01 | 27.90375 | -82.82358 | 3311 ft | 264 kts | 164° |
| 2026-05-04 21:01 | 27.88603 | -82.81844 | 2933 ft | 262 kts | 164° |
| 2026-05-04 21:01 | 27.86842 | -82.81329 | 2549 ft | 260 kts | 163° |
| 2026-05-04 21:02 | 27.85128 | -82.80767 | 2336 ft | 250 kts | 154° |
| 2026-05-04 21:02 | 27.83827 | -82.79588 | 2211 ft | 235 kts | 122° |
| 2026-05-04 21:02 | 27.83197 | -82.77942 | 2109 ft | 224 kts | 106° |
| 2026-05-04 21:02 | 27.82786 | -82.76283 | 2010 ft | 215 kts | 104° |
| 2026-05-04 21:03 | 27.82415 | -82.74699 | 2006 ft | 202 kts | 104° |
| 2026-05-04 21:03 | 27.82068 | -82.73226 | 2027 ft | 188 kts | 104° |
| 2026-05-04 21:03 | 27.81751 | -82.71804 | 2009 ft | 185 kts | 98° |
| 2026-05-04 21:03 | 27.81867 | -82.70376 | 1984 ft | 183 kts | 76° |
| 2026-05-04 21:04 | 27.82187 | -82.69006 | 1987 ft | 172 kts | 73° |
| 2026-05-04 21:04 | 27.82711 | -82.67885 | 1790 ft | 159 kts | 44° |
| 2026-05-04 21:04 | 27.83720 | -82.67507 | 1506 ft | 159 kts | 356° |
| 2026-05-04 21:04 | 27.84800 | -82.67761 | 1201 ft | 159 kts | 350° |
| 2026-05-04 21:05 | 27.85880 | -82.67941 | 941 ft | 155 kts | 353° |
| 2026-05-04 21:05 | 27.86939 | -82.68131 | 674 ft | 152 kts | 352° |
| 2026-05-04 21:05 | 27.87967 | -82.68315 | 435 ft | 147 kts | 355° |
| 2026-05-04 21:05 | 27.88969 | -82.68489 | 262 ft | 144 kts | 352° |
| 2026-05-04 21:06 | 27.89958 | -82.68656 | 55 ft | 142 kts | 353° |
| 2026-05-04 21:06 | 27.90860 | -82.68812 | 22 ft | 112 kts | 351° |
| 2026-05-04 21:06 | 27.91425 | -82.68911 | 23 ft | 38 kts | 352° |
| 2026-05-04 21:06 | 27.91555 | -82.68962 | 21 ft | 14 kts | 283° |
| 2026-05-04 21:07 | 27.91545 | -82.69058 | 23 ft | 11 kts | 251° |
| 2026-05-04 21:07 | 27.91481 | -82.69078 | 24 ft | 14 kts | 172° |
| 2026-05-04 21:07 | 27.91354 | -82.69057 | 26 ft | 20 kts | 171° |
| 2026-05-04 21:07 | 27.91208 | -82.69031 | 24 ft | 23 kts | 171° |
| 2026-05-04 21:08 | 27.91048 | -82.69003 | 24 ft | 24 kts | 171° |
| 2026-05-04 21:08 | 27.90886 | -82.68975 | 24 ft | 21 kts | 171° |
| 2026-05-04 21:08 | 27.90769 | -82.68955 | 24 ft | 13 kts | 172° |
| 2026-05-04 21:08 | 27.90716 | -82.68985 | 24 ft | 8 kts | 240° |
| 2026-05-04 21:09 | 27.90702 | -82.69016 | 24 ft | 1 kts | 243° |
| 2026-05-04 21:09 | 27.90701 | -82.69020 | 24 ft | 1 kts | 243° |
| 2026-05-04 21:09 | 27.90699 | -82.69023 | 24 ft | 0 kts | 244° |